Terminal Aerodrome Forecast
Issued by NWS Tampa Bay Area, FL

Home | Current Version | Previous Version | Text Only | Print | Product List | Glossary On
Versions: 1 2 3 4 5 6 7 8 9 10 11 12 13 14 15 16 17 18
221
FTUS42 KTBW 301120
TAFSRQ
TAF
KSRQ 301120Z 3012/3112 VRB04KT P6SM VCSH FEW025 SCT250
     FM301500 25007KT P6SM VCTS SCT025CB SCT070 BKN250
     FM301800 29008KT P6SM VCTS SCT035CB BKN070
     FM310100 VRB03KT P6SM FEW035 SCT070 BKN250=

USA.gov is the U.S. government's official web portal to all federal, state and local government web resources and services.